Time;durP1;ratioP1;P1;durP2;ratioP2;P2;SDS_P1;SDS_P2;PMS_P1;PMS_P2;Temp;Humidity;BMP_temperature;BMP_pressure;BME280_temperature;BME280_humidity;BME280_pressure;Samples;Min_cycle;Max_cycle;Signal;HPM_P1;HPM_P2
2021/12/07 00:01:37;;;;;;;3.95;2.58;;;2.00;99.90;;;;;;6292516;28;20071;-82
2021/12/07 00:04:38;;;;;;;3.47;2.90;;;1.90;99.90;;;;;;6274466;28;20470;-81
2021/12/07 00:07:42;;;;;;;2.85;2.50;;;2.60;99.90;;;;;;6291240;28;20125;-81
2021/12/07 00:10:43;;;;;;;3.75;2.78;;;2.10;99.90;;;;;;6290882;28;20036;-82
2021/12/07 00:13:43;;;;;;;3.92;2.80;;;2.10;99.90;;;;;;6257510;28;20129;-81
2021/12/07 00:16:44;;;;;;;3.10;2.30;;;;;;;;;;6293308;28;20359;-82
2021/12/07 00:19:45;;;;;;;1.85;1.75;;;;;;;;;;6295399;28;20035;-81
2021/12/07 00:22:48;;;;;;;1.40;1.30;;;2.40;99.90;;;;;;6295274;28;20471;-82
2021/12/07 00:25:49;;;;;;;1.52;1.42;;;;;;;;;;6279135;28;20039;-81
2021/12/07 00:28:50;;;;;;;4.15;2.33;;;2.80;99.90;;;;;;6293884;28;20052;-81
2021/12/07 00:32:07;;;;;;;1.93;1.73;;;3.00;99.90;;;;;;6262599;28;20066;-81
2021/12/07 00:38:27;;;;;;;1.60;1.50;;;3.50;99.90;;;;;;6281290;28;20070;-82
2021/12/07 00:41:28;;;;;;;1.77;1.67;;;;;;;;;;6295366;28;20035;-81
2021/12/07 00:44:29;;;;;;;1.90;1.80;;;3.40;99.90;;;;;;6278568;28;20070;-82
2021/12/07 00:47:30;;;;;;;1.75;1.65;;;;;;;;;;6278492;28;20035;-83
2021/12/07 00:50:31;;;;;;;1.48;1.25;;;3.20;99.90;;;;;;6294716;28;20036;-82
2021/12/07 00:53:32;;;;;;;1.40;1.30;;;3.20;99.90;;;;;;6295457;28;20058;-81
2021/12/07 00:56:33;;;;;;;1.35;1.25;;;;;;;;;;6278376;28;20356;-82
2021/12/07 00:59:33;;;;;;;1.75;1.52;;;3.10;99.90;;;;;;6295568;28;20496;-83
2021/12/07 01:02:34;;;;;;;1.63;1.52;;;3.00;99.90;;;;;;6278306;28;20033;-81
2021/12/07 01:05:36;;;;;;;1.63;1.25;;;3.30;99.90;;;;;;6261101;28;20025;-82
2021/12/07 01:25:11;;;;;;;1.55;1.48;;;3.90;99.90;;;;;;6280134;28;20119;-82
2021/12/07 01:28:27;;;;;;;1.10;1.10;;;3.30;99.90;;;;;;6294718;28;20027;-81
2021/12/07 01:31:35;;;;;;;1.05;1.05;;;4.30;99.90;;;;;;6278679;28;20053;-81
2021/12/07 01:38:23;;;;;;;1.23;1.13;;;3.40;99.90;;;;;;6279683;28;20099;-82
2021/12/07 01:42:44;;;;;;;0.90;0.90;;;3.30;99.90;;;;;;6294009;28;20021;-82
2021/12/07 02:00:45;;;;;;;1.00;1.00;;;3.40;99.90;;;;;;6279201;28;20392;-83
2021/12/07 02:03:45;;;;;;;1.00;1.00;;;3.40;99.90;;;;;;6277167;28;20046;-83
2021/12/07 02:06:46;;;;;;;1.13;1.13;;;3.40;99.90;;;;;;6293094;28;20581;-82
2021/12/07 02:09:51;;;;;;;1.33;1.23;;;3.40;99.90;;;;;;6276417;28;20081;-83
2021/12/07 02:12:55;;;;;;;1.40;1.17;;;3.50;99.90;;;;;;6261363;28;20433;-82
2021/12/07 02:15:56;;;;;;;1.40;1.40;;;3.20;99.90;;;;;;6276801;28;20033;-83
2021/12/07 02:18:57;;;;;;;1.20;1.20;;;;;;;;;;6276547;28;20040;-82
2021/12/07 02:21:59;;;;;;;1.00;1.00;;;;;;;;;;6294005;28;20036;-82
2021/12/07 02:25:00;;;;;;;1.27;1.20;;;;;;;;;;6292442;28;20016;-82
2021/12/07 02:28:01;;;;;;;1.45;1.35;;;3.40;99.90;;;;;;6292593;28;20024;-82
2021/12/07 02:31:02;;;;;;;1.42;1.20;;;3.40;99.90;;;;;;6293124;28;20082;-82
2021/12/07 02:34:03;;;;;;;2.58;1.38;;;4.80;99.90;;;;;;6275716;28;20052;-82
2021/12/07 02:37:04;;;;;;;1.25;1.15;;;3.20;99.90;;;;;;6292299;28;20398;-82
2021/12/07 02:40:06;;;;;;;1.20;1.20;;;3.60;99.90;;;;;;6275116;28;20040;-82
2021/12/07 02:43:06;;;;;;;0.70;0.70;;;3.60;99.90;;;;;;6275800;28;20082;-83
2021/12/07 02:46:07;;;;;;;1.30;1.20;;;3.50;99.90;;;;;;6275746;28;20036;-81
2021/12/07 02:49:08;;;;;;;1.25;1.25;;;3.50;99.90;;;;;;6291932;28;20029;-81
2021/12/07 02:52:08;;;;;;;1.38;1.30;;;3.60;99.90;;;;;;6258941;28;20110;-81
2021/12/07 02:55:09;;;;;;;1.05;1.05;;;3.40;99.90;;;;;;6275528;28;20032;-81
2021/12/07 02:58:10;;;;;;;1.48;1.38;;;4.10;99.90;;;;;;6258198;28;20028;-81
2021/12/07 03:01:17;;;;;;;1.30;1.20;;;4.30;99.90;;;;;;6275534;28;20102;-81
2021/12/07 03:04:22;;;;;;;2.08;1.48;;;3.50;99.90;;;;;;6276109;28;20484;-81
2021/12/07 03:07:53;;;;;;;1.33;1.30;;;6.00;99.90;;;;;;6276199;28;20074;-81
2021/12/07 03:27:29;;;;;;;2.00;1.40;;;3.50;99.90;;;;;;6291574;28;20068;-82
2021/12/07 03:30:29;;;;;;;1.60;1.50;;;3.60;99.90;;;;;;6274073;28;20090;-81
2021/12/07 03:33:30;;;;;;;1.75;1.65;;;4.30;99.90;;;;;;6274844;28;20036;-81
2021/12/07 03:36:31;;;;;;;1.88;1.77;;;3.40;99.90;;;;;;6291716;28;20025;-82
2021/12/07 03:39:31;;;;;;;1.42;1.33;;;3.50;99.90;;;;;;6291332;28;20394;-83
2021/12/07 03:42:32;;;;;;;2.10;1.90;;;3.30;99.90;;;;;;6274946;28;20459;-81
2021/12/07 03:45:33;;;;;;;1.92;1.60;;;4.70;99.90;;;;;;6292742;28;20031;-81
2021/12/07 03:48:33;;;;;;;2.22;1.83;;;3.50;99.90;;;;;;6274629;28;20383;-81
2021/12/07 03:51:34;;;;;;;1.77;1.67;;;3.60;99.90;;;;;;6259562;28;20483;-83
2021/12/07 03:54:35;;;;;;;2.25;2.00;;;3.40;99.90;;;;;;6279385;28;20028;-82
2021/12/07 03:57:35;;;;;;;2.40;1.83;;;3.40;99.90;;;;;;6296322;28;20021;-82
2021/12/07 04:00:37;;;;;;;1.70;1.60;;;5.30;99.90;;;;;;6279111;28;20053;-82
2021/12/07 04:03:38;;;;;;;2.58;2.30;;;3.30;99.90;;;;;;6279622;28;20107;-82
2021/12/07 04:06:40;;;;;;;3.65;2.40;;;3.20;99.90;;;;;;6279549;28;20044;-81
2021/12/07 04:09:41;;;;;;;3.77;3.37;;;3.10;99.90;;;;;;6295881;28;20119;-82
2021/12/07 04:12:42;;;;;;;6.35;4.43;;;;;;;;;;6262651;28;20036;-83
2021/12/07 04:15:42;;;;;;;2.95;2.67;;;4.00;99.90;;;;;;6295642;28;20024;-83
2021/12/07 04:18:43;;;;;;;2.65;2.45;;;5.10;99.90;;;;;;6279045;28;20495;-83
2021/12/07 04:21:44;;;;;;;3.45;2.13;;;4.70;99.90;;;;;;6295548;28;20024;-83
2021/12/07 04:24:44;;;;;;;3.72;2.28;;;5.60;99.90;;;;;;6262351;28;20028;-82
2021/12/07 04:27:45;;;;;;;3.40;2.28;;;3.70;99.90;;;;;;6295613;28;20028;-82
2021/12/07 04:30:45;;;;;;;2.50;2.20;;;3.20;99.90;;;;;;6278231;28;20056;-83
2021/12/07 04:33:46;;;;;;;1.92;1.83;;;3.20;99.90;;;;;;6278448;28;20028;-82
2021/12/07 04:36:47;;;;;;;2.15;1.95;;;2.90;99.90;;;;;;6278670;28;20135;-81
2021/12/07 04:39:47;;;;;;;3.28;1.90;;;3.00;99.90;;;;;;6278362;28;20497;-82
2021/12/07 04:42:48;;;;;;;2.65;1.88;;;3.10;99.90;;;;;;6295180;28;20494;-81
2021/12/07 04:46:01;;;;;;;2.63;2.05;;;4.30;99.90;;;;;;6278614;28;20029;-82
2021/12/07 04:49:43;;;;;;;2.50;1.80;;;;;;;;;;6280509;28;20493;-81
2021/12/07 04:59:11;;;;;;;3.97;1.90;;;3.30;99.90;;;;;;6274097;28;20044;-82
2021/12/07 05:02:14;;;;;;;1.75;1.58;;;;;;;;;;6260936;28;20473;-81
2021/12/07 05:05:16;;;;;;;1.77;1.50;;;;;;;;;;6294449;28;20377;-82
2021/12/07 05:08:32;;;;;;;4.10;1.75;;;;;;;;;;6294983;28;20035;-82
2021/12/07 05:12:02;;;;;;;4.72;2.10;;;3.50;99.90;;;;;;6279649;28;20558;-83
2021/12/07 05:15:16;;;;;;;2.70;1.83;;;3.60;99.90;;;;;;6293973;28;20031;-82
2021/12/07 05:37:57;;;;;;;4.07;2.20;;;3.80;99.90;;;;;;6293655;28;20429;-83
2021/12/07 05:40:59;;;;;;;2.33;2.13;;;;;;;;;;6276712;28;20147;-82
2021/12/07 05:43:59;;;;;;;3.05;2.45;;;3.30;99.90;;;;;;6293611;28;20059;-81
2021/12/07 05:47:00;;;;;;;4.43;2.55;;;3.40;99.90;;;;;;6294974;28;20032;-83
2021/12/07 05:50:01;;;;;;;7.85;3.33;;;4.40;99.90;;;;;;6277496;28;20070;-86
2021/12/07 05:53:02;;;;;;;3.55;2.35;;;4.10;99.90;;;;;;6276500;28;20031;-84
2021/12/07 05:56:03;;;;;;;4.07;2.20;;;;;;;;;;6276697;28;20078;-83
2021/12/07 05:59:04;;;;;;;3.95;2.60;;;3.90;99.90;;;;;;6295028;28;20032;-82
2021/12/07 06:02:04;;;;;;;3.20;2.35;;;3.80;99.90;;;;;;6276348;28;20077;-82
2021/12/07 06:05:05;;;;;;;4.65;2.30;;;5.40;99.90;;;;;;6276069;28;20097;-81
2021/12/07 06:08:06;;;;;;;5.25;2.65;;;3.60;99.90;;;;;;6276385;28;20037;-81
2021/12/07 06:11:07;;;;;;;6.07;2.88;;;5.30;99.90;;;;;;6292796;28;20060;-83
2021/12/07 06:14:09;;;;;;;5.10;2.67;;;;;;;;;;6258671;28;20101;-82
2021/12/07 06:17:10;;;;;;;;;;;3.50;99.90;;;;;;6293394;28;20430;-82
2021/12/07 06:20:11;;;;;;;3.03;2.60;;;3.50;99.90;;;;;;6292864;28;19908;-82
2021/12/07 06:23:14;;;;;;;3.97;2.90;;;2.20;99.90;;;;;;6275727;28;20036;-84
2021/12/07 06:26:14;;;;;;;;;;;4.00;99.90;;;;;;6257398;28;20028;-84
2021/12/07 06:29:15;;;;;;;3.55;2.55;;;4.50;99.90;;;;;;6274944;28;19970;-84
2021/12/07 06:32:15;;;;;;;3.63;2.90;;;3.30;99.90;;;;;;6257629;28;20079;-84
2021/12/07 06:35:16;;;;;;;3.75;2.60;;;1.40;99.90;;;;;;6259279;28;20024;-84
2021/12/07 06:38:18;;;;;;;4.10;2.70;;;3.50;99.90;;;;;;6273379;28;20750;-82
2021/12/07 06:41:19;;;;;;;4.60;2.58;;;;;;;;;;6258180;28;20036;-83
2021/12/07 06:44:19;;;;;;;2.88;2.17;;;3.40;99.90;;;;;;6275448;28;20116;-83
2021/12/07 06:47:20;;;;;;;4.60;2.65;;;;;;;;;;6259139;28;20033;-80
2021/12/07 06:50:21;;;;;;;2.78;2.45;;;;;;;;;;6275168;28;20025;-84
2021/12/07 06:53:22;;;;;;;4.47;2.38;;;3.10;99.90;;;;;;6274638;28;20453;-86
2021/12/07 06:56:23;;;;;;;5.18;2.80;;;;;;;;;;6259012;28;20032;-81
2021/12/07 06:59:24;;;;;;;4.47;2.67;;;3.40;99.90;;;;;;6273059;28;20028;-81
2021/12/07 07:02:24;;;;;;;3.80;2.78;;;3.40;99.90;;;;;;6291861;28;20098;-81
2021/12/07 07:05:25;;;;;;;4.80;3.20;;;4.70;99.90;;;;;;6275208;28;20024;-81
2021/12/07 07:08:26;;;;;;;5.45;3.05;;;4.90;99.90;;;;;;6274530;28;20043;-81
2021/12/07 07:11:26;;;;;;;3.05;2.20;;;3.50;99.90;;;;;;6274579;28;20043;-81
2021/12/07 07:14:27;;;;;;;7.60;2.45;;;3.70;99.90;;;;;;6273934;28;20028;-81
2021/12/07 07:17:27;;;;;;;4.05;2.30;;;4.10;99.90;;;;;;6291561;28;20475;-81
2021/12/07 07:20:28;;;;;;;3.92;2.30;;;3.40;99.90;;;;;;6290579;28;20028;-81
2021/12/07 07:23:29;;;;;;;3.60;2.38;;;3.30;99.90;;;;;;6274599;28;20033;-80
2021/12/07 07:26:29;;;;;;;3.80;2.47;;;3.70;99.90;;;;;;6274477;28;20032;-81
2021/12/07 07:29:30;;;;;;;3.17;2.55;;;4.70;99.90;;;;;;6291059;28;20157;-80
2021/12/07 07:32:31;;;;;;;2.88;2.30;;;;;;;;;;6290849;28;20078;-81
2021/12/07 07:35:32;;;;;;;6.90;2.40;;;3.50;99.90;;;;;;6274307;28;20434;-81
2021/12/07 07:38:33;;;;;;;3.33;2.38;;;5.00;99.90;;;;;;6292398;28;20032;-81
2021/12/07 07:41:33;;;;;;;2.97;2.20;;;4.90;99.90;;;;;;6274463;28;20056;-82
2021/12/07 07:44:34;;;;;;;4.57;2.20;;;3.50;99.90;;;;;;6274459;28;20463;-81
2021/12/07 07:47:34;;;;;;;2.60;2.20;;;3.40;99.90;;;;;;6257803;28;20040;-79
2021/12/07 07:50:35;;;;;;;2.85;1.95;;;3.50;99.90;;;;;;6290595;28;20051;-81
2021/12/07 07:53:36;;;;;;;2.83;2.15;;;4.00;99.90;;;;;;6274517;28;20063;-81
2021/12/07 07:56:37;;;;;;;2.67;2.00;;;3.90;99.90;;;;;;6257921;28;20028;-81
2021/12/07 07:59:39;;;;;;;2.55;2.08;;;4.80;99.90;;;;;;6257696;28;20376;-81
2021/12/07 08:02:40;;;;;;;3.55;2.33;;;4.40;99.90;;;;;;6258081;28;20024;-81
2021/12/07 08:05:40;;;;;;;7.72;2.97;;;3.50;99.90;;;;;;6274274;28;20489;-81
2021/12/07 08:08:41;;;;;;;5.18;2.67;;;3.60;99.90;;;;;;6274070;28;20071;-81
2021/12/07 08:11:41;;;;;;;5.03;2.85;;;3.70;99.90;;;;;;6257099;28;20076;-81
2021/12/07 08:14:42;;;;;;;2.33;2.10;;;3.70;99.90;;;;;;6291085;28;20036;-80
2021/12/07 08:17:43;;;;;;;5.30;2.70;;;3.70;99.90;;;;;;6274261;28;20443;-81
2021/12/07 08:20:43;;;;;;;5.00;2.28;;;3.80;99.90;;;;;;6290333;28;20132;-81
2021/12/07 08:23:44;;;;;;;3.78;2.67;;;3.90;99.90;;;;;;6274294;28;20029;-81
2021/12/07 08:26:45;;;;;;;3.88;2.65;;;4.30;99.90;;;;;;6290752;28;20032;-81
2021/12/07 08:29:45;;;;;;;3.60;2.40;;;4.10;99.90;;;;;;6290143;28;20052;-82
2021/12/07 08:32:46;;;;;;;4.55;2.28;;;;;;;;;;6290384;28;20036;-82
2021/12/07 08:35:48;;;;;;;4.22;2.13;;;;;;;;;;6290517;28;20424;-82
2021/12/07 08:38:50;;;;;;;4.47;2.55;;;3.90;99.90;;;;;;6293808;28;20074;-82
2021/12/07 08:41:50;;;;;;;4.10;2.50;;;;;;;;;;6294828;28;20036;-82
2021/12/07 08:44:51;;;;;;;7.80;2.25;;;;;;;;;;6295092;28;20438;-82
2021/12/07 08:47:52;;;;;;;4.65;2.90;;;;;;;;;;6277878;28;20063;-82
2021/12/07 08:50:53;;;;;;;72.05;42.97;;;;;;;;;;6295826;28;20044;-82
2021/12/07 08:54:01;;;;;;;8.93;5.60;;;4.40;99.90;;;;;;6294411;28;20024;-81
2021/12/07 09:00:21;;;;;;;3.60;2.30;;;4.40;99.90;;;;;;6279921;28;20063;-81
2021/12/07 09:03:21;;;;;;;6.32;3.50;;;4.70;99.90;;;;;;6261132;28;20031;-81
2021/12/07 09:06:22;;;;;;;4.85;2.47;;;6.90;99.90;;;;;;6260939;28;20028;-82
2021/12/07 09:09:23;;;;;;;2.10;1.90;;;4.90;99.90;;;;;;6277702;28;20079;-81
2021/12/07 09:12:23;;;;;;;4.28;2.10;;;5.10;99.90;;;;;;6277606;28;20081;-82
2021/12/07 09:15:24;;;;;;;3.95;2.40;;;5.20;99.90;;;;;;6294463;28;20036;-82
2021/12/07 09:18:25;;;;;;;6.10;2.70;;;6.40;99.90;;;;;;6277231;28;20028;-81
2021/12/07 09:21:26;;;;;;;4.20;2.15;;;;;;;;;;6277561;28;20039;-82
2021/12/07 09:24:27;;;;;;;4.90;2.50;;;5.30;99.90;;;;;;6293918;28;20112;-81
2021/12/07 09:27:28;;;;;;;5.20;2.50;;;7.50;99.90;;;;;;6277124;28;20032;-81
2021/12/07 09:30:28;;;;;;;6.18;3.05;;;7.20;99.90;;;;;;6293752;28;20143;-82
2021/12/07 09:33:30;;;;;;;4.10;2.97;;;8.50;99.90;;;;;;6276801;28;20474;-82
2021/12/07 09:36:31;;;;;;;5.85;2.38;;;9.10;99.90;;;;;;6260557;28;20115;-82
2021/12/07 09:39:31;;;;;;;5.05;2.75;;;10.20;99.90;;;;;;6260152;28;20479;-82
2021/12/07 09:42:32;;;;;;;4.03;2.60;;;10.90;97.90;;;;;;6260206;28;20021;-82
2021/12/07 09:45:32;;;;;;;3.97;2.72;;;11.20;93.50;;;;;;6260471;28;20037;-82
2021/12/07 09:48:33;;;;;;;4.18;2.53;;;10.90;94.20;;;;;;6259834;28;20519;-82
2021/12/07 09:51:34;;;;;;;3.70;2.67;;;11.20;92.50;;;;;;6276299;28;20040;-83
2021/12/07 09:54:35;;;;;;;6.72;2.35;;;11.60;92.50;;;;;;6260052;28;20028;-82
2021/12/07 09:57:35;;;;;;;4.50;2.63;;;11.80;92.00;;;;;;6276321;28;20029;-81
2021/12/07 10:00:36;;;;;;;5.00;2.20;;;12.00;90.10;;;;;;6259598;28;20032;-81
2021/12/07 10:03:37;;;;;;;6.70;2.42;;;11.90;88.90;;;;;;6260171;28;20033;-83
2021/12/07 10:06:38;;;;;;;5.60;2.30;;;11.90;86.70;;;;;;6259586;28;20028;-80
2021/12/07 10:09:39;;;;;;;6.07;2.75;;;11.70;85.20;;;;;;6275688;28;20036;-80
2021/12/07 10:12:39;;;;;;;3.67;2.17;;;12.80;92.80;;;;;;6293156;28;20050;-83
2021/12/07 10:15:40;;;;;;;4.38;2.60;;;11.80;86.10;;;;;;6275759;28;20025;-88
2021/12/07 10:18:42;;;;;;;7.68;2.60;;;12.00;85.60;;;;;;6259941;28;20025;-84
2021/12/07 10:21:43;;;;;;;7.80;3.65;;;12.50;82.10;;;;;;6259398;28;20489;-85
2021/12/07 10:24:54;;;;;;;6.07;3.40;;;12.00;97.80;;;;;;6259685;28;20116;-85
2021/12/07 10:27:56;;;;;;;7.25;3.25;;;12.60;97.20;;;;;;6259301;28;20035;-84
2021/12/07 10:31:06;;;;;;;6.23;2.40;;;12.80;95.80;;;;;;6259224;28;20057;-84
2021/12/07 10:34:11;;;;;;;7.88;2.40;;;13.60;94.50;;;;;;6292055;28;20028;-85
2021/12/07 10:37:14;;;;;;;9.48;2.58;;;12.90;93.70;;;;;;6260027;28;20078;-85
2021/12/07 10:40:14;;;;;;;3.42;2.08;;;13.40;87.70;;;;;;6259121;28;20029;-84
2021/12/07 10:43:15;;;;;;;4.45;2.20;;;;;;;;;;6276245;28;20473;-84
2021/12/07 10:46:28;;;;;;;3.28;2.00;;;12.60;77.60;;;;;;6275854;28;20025;-85
2021/12/07 10:49:39;;;;;;;;;;;11.30;75.80;;;;;;6292485;28;20037;-84
2021/12/07 10:52:42;;;;;;;3.30;2.25;;;10.40;80.00;;;;;;6275244;28;19944;-84
2021/12/07 10:55:43;;;;;;;4.80;3.08;;;10.40;83.00;;;;;;6258938;28;20650;-85
2021/12/07 10:58:44;;;;;;;4.45;2.38;;;9.80;82.10;;;;;;6258831;28;20029;-85
2021/12/07 11:01:46;;;;;;;7.05;4.22;;;9.80;83.60;;;;;;6258255;28;20524;-85
2021/12/07 11:04:48;;;;;;;14.90;9.73;;;10.50;83.10;;;;;;6258561;28;20055;-86
2021/12/07 11:07:50;;;;;;;5.00;3.47;;;11.70;81.40;;;;;;6274602;28;20020;-86
2021/12/07 11:10:52;;;;;;;4.72;2.45;;;12.60;77.40;;;;;;6258630;28;20048;-86
2021/12/07 11:13:52;;;;;;;12.88;7.30;;;13.40;72.40;;;;;;6258514;28;20481;-86
2021/12/07 11:16:53;;;;;;;4.50;2.50;;;13.60;73.90;;;;;;6258645;28;20033;-86
2021/12/07 11:19:54;;;;;;;6.22;2.70;;;13.60;73.60;;;;;;6274737;28;20136;-86
2021/12/07 11:23:23;;;;;;;7.95;3.20;;;13.40;75.50;;;;;;6258197;28;20028;-87
2021/12/07 11:29:40;;;;;;;5.20;3.08;;;10.60;74.40;;;;;;6274679;28;20060;-86
2021/12/07 11:32:47;;;;;;;6.65;3.15;;;12.10;80.50;;;;;;6261547;28;20032;-86
2021/12/07 11:35:49;;;;;;;5.43;3.70;;;12.00;92.10;;;;;;6258212;28;20119;-85
2021/12/07 11:38:50;;;;;;;4.93;3.35;;;11.90;80.80;;;;;;6258153;28;20035;-86
2021/12/07 11:41:58;;;;;;;4.70;3.13;;;12.10;82.00;;;;;;6274456;28;20029;-85
2021/12/07 11:45:13;;;;;;;5.70;3.40;;;12.20;77.40;;;;;;6257999;28;20403;-86
2021/12/07 11:48:13;;;;;;;11.40;2.95;;;12.20;96.70;;;;;;6291414;28;20036;-85
2021/12/07 11:51:14;;;;;;;7.22;4.90;;;11.80;91.30;;;;;;6257436;28;20036;-86
2021/12/07 11:54:15;;;;;;;7.28;4.85;;;11.70;90.60;;;;;;6274418;28;20383;-85
2021/12/07 11:57:17;;;;;;;5.13;2.55;;;11.50;89.40;;;;;;6257699;28;20033;-86
2021/12/07 12:00:21;;;;;;;4.82;2.97;;;11.30;86.40;;;;;;6274766;28;20036;-85
2021/12/07 12:03:23;;;;;;;4.70;2.40;;;10.40;89.20;;;;;;6257783;28;20628;-85
2021/12/07 12:06:24;;;;;;;5.22;2.50;;;;;;;;;;6258084;28;20025;-84
2021/12/07 12:09:25;;;;;;;5.90;2.65;;;8.70;94.60;;;;;;6274428;28;20097;-86
2021/12/07 12:12:32;;;;;;;9.55;5.00;;;8.70;85.10;;;;;;6259182;28;20078;-86
2021/12/07 12:16:04;;;;;;;3.92;2.20;;;8.40;86.90;;;;;;6280166;28;20111;-86
2021/12/07 12:19:31;;;;;;;5.32;2.05;;;8.40;86.60;;;;;;6296170;28;20119;-85
2021/12/07 12:22:37;;;;;;;4.15;2.00;;;7.40;93.40;;;;;;6264587;28;20111;-86
2021/12/07 12:25:37;;;;;;;5.55;2.15;;;8.30;87.10;;;;;;6262929;28;20486;-87
2021/12/07 12:28:42;;;;;;;4.22;2.30;;;8.20;89.20;;;;;;6261941;28;20054;-88
2021/12/07 12:31:51;;;;;;;4.78;2.40;;;8.30;86.70;;;;;;6278505;28;20150;-86
2021/12/07 12:34:52;;;;;;;5.43;2.83;;;8.50;86.70;;;;;;6262829;28;20024;-86
2021/12/07 12:37:53;;;;;;;7.50;2.60;;;;;;;;;;6261724;28;20175;-85
2021/12/07 12:41:03;;;;;;;3.45;2.40;;;8.00;87.30;;;;;;6278512;28;20036;-87
2021/12/07 12:44:09;;;;;;;8.07;2.22;;;7.60;87.90;;;;;;6278638;28;20059;-85
2021/12/07 12:47:09;;;;;;;5.07;2.28;;;7.40;96.60;;;;;;6261731;28;20025;-85
2021/12/07 12:50:18;;;;;;;5.28;2.35;;;7.60;91.30;;;;;;6261951;28;20470;-86
2021/12/07 12:53:32;;;;;;;6.95;2.95;;;7.40;92.00;;;;;;6261596;28;20393;-86
2021/12/07 12:56:36;;;;;;;11.02;5.72;;;7.30;93.00;;;;;;6263065;28;20032;-85
2021/12/07 12:59:38;;;;;;;7.07;3.10;;;7.00;93.30;;;;;;6262348;28;20157;-86
2021/12/07 13:02:39;;;;;;;5.90;2.22;;;;;;;;;;6261386;28;20034;-84
2021/12/07 13:05:43;;;;;;;9.95;2.80;;;;;;;;;;6278351;28;20028;-83
2021/12/07 13:08:53;;;;;;;3.92;2.30;;;7.20;92.10;;;;;;6277048;28;20028;-85
2021/12/07 13:11:57;;;;;;;6.05;2.70;;;7.20;94.20;;;;;;6294611;28;20470;-84
2021/12/07 13:15:05;;;;;;;4.07;2.40;;;7.20;93.00;;;;;;6277383;28;20029;-85
2021/12/07 13:18:07;;;;;;;4.30;2.00;;;7.20;92.90;;;;;;6291202;28;20028;-85
2021/12/07 13:21:23;;;;;;;4.85;1.80;;;7.50;93.40;;;;;;6258299;28;20058;-85
2021/12/07 13:24:38;;;;;;;5.45;1.80;;;7.20;99.90;;;;;;6287808;28;20021;-85
2021/12/07 13:28:02;;;;;;;4.70;2.13;;;7.00;99.90;;;;;;6260816;28;20033;-83
2021/12/07 13:31:17;;;;;;;5.93;2.40;;;6.90;99.90;;;;;;6265497;28;20060;-84
2021/12/07 13:34:25;;;;;;;4.90;2.60;;;7.10;99.90;;;;;;6293834;28;20154;-84
2021/12/07 13:37:47;;;;;;;3.58;2.00;;;6.90;94.40;;;;;;6275064;28;20048;-82
2021/12/07 13:40:49;;;;;;;6.47;2.08;;;6.80;94.20;;;;;;6262394;28;20715;-84
2021/12/07 13:43:51;;;;;;;4.97;2.20;;;;;;;;;;6259106;28;20154;-84
2021/12/07 13:46:57;;;;;;;2.83;1.80;;;6.90;92.70;;;;;;6293080;28;20055;-84
2021/12/07 13:50:05;;;;;;;2.55;1.98;;;6.60;99.90;;;;;;6259127;28;20198;-84
2021/12/07 13:53:06;;;;;;;3.58;2.08;;;6.70;93.10;;;;;;6260928;28;20467;-85
2021/12/07 13:56:07;;;;;;;3.72;2.10;;;;;;;;;;6255733;28;20078;-85
2021/12/07 13:59:13;;;;;;;5.57;1.83;;;6.70;93.20;;;;;;6258073;28;20029;-85
2021/12/07 14:02:13;;;;;;;5.82;2.28;;;6.50;99.90;;;;;;6259840;28;20071;-85
2021/12/07 14:05:19;;;;;;;6.88;2.22;;;6.60;99.90;;;;;;6259174;28;20025;-86
2021/12/07 14:08:20;;;;;;;6.65;2.60;;;6.50;99.90;;;;;;6260051;28;20382;-85
2021/12/07 14:11:20;;;;;;;6.32;2.25;;;;;;;;;;6259599;28;20047;-85
2021/12/07 14:14:21;;;;;;;4.53;2.28;;;;;;;;;;6275494;28;20425;-85
2021/12/07 14:17:22;;;;;;;2.55;1.75;;;;;;;;;;6276431;28;20025;-85
2021/12/07 14:20:39;;;;;;;4.57;2.13;;;6.50;99.90;;;;;;6276406;28;20035;-85
2021/12/07 14:23:44;;;;;;;4.20;2.55;;;4.60;99.90;;;;;;6275995;28;20039;-85
2021/12/07 14:26:45;;;;;;;3.63;2.22;;;6.30;99.90;;;;;;6260372;28;20150;-85
2021/12/07 14:29:46;;;;;;;3.67;2.55;;;;;;;;;;6258964;28;20449;-84
2021/12/07 14:32:47;;;;;;;5.78;2.83;;;6.20;96.50;;;;;;6276214;28;20024;-85
2021/12/07 14:47:49;;;;;;;8.32;2.60;;;5.00;99.90;;;;;;6047667;29;20041;-87
2021/12/07 14:51:54;;;;;;;5.50;2.80;;;4.90;99.90;;;;;;6056547;29;20065;-86
2021/12/07 14:55:01;;;;;;;5.70;3.03;;;;;;;;;;6015823;29;20037;-86
2021/12/07 14:58:10;;;;;;;5.45;2.90;;;;;;;;;;5973935;29;20563;-87
2021/12/07 15:01:13;;;;;;;7.35;3.40;;;4.30;99.90;;;;;;5974204;29;20061;-86
2021/12/07 15:04:14;;;;;;;5.22;3.10;;;;;;;;;;5973198;29;20628;-86
2021/12/07 15:07:18;;;;;;;12.60;3.05;;;;;;;;;;5972824;29;20038;-85
2021/12/07 15:10:22;;;;;;;5.63;3.58;;;;;;;;;;5989098;29;20050;-86
2021/12/07 15:13:23;;;;;;;10.57;4.82;;;3.90;99.90;;;;;;5983820;29;20404;-86
2021/12/07 15:16:27;;;;;;;6.43;3.50;;;;;;;;;;6053616;29;20044;-86
2021/12/07 15:19:28;;;;;;;5.45;3.67;;;;;;;;;;6119294;29;20047;-86
2021/12/07 15:22:34;;;;;;;8.02;3.58;;;;;;;;;;6113453;28;20469;-85
2021/12/07 15:25:39;;;;;;;10.60;3.83;;;2.20;99.90;;;;;;6135225;28;20070;-86
2021/12/07 15:28:52;;;;;;;11.43;3.88;;;3.70;99.90;;;;;;6119278;28;20039;-86
2021/12/07 15:31:57;;;;;;;10.32;4.30;;;3.60;99.90;;;;;;6240608;28;20083;-87
2021/12/07 15:39:10;;;;;;;6.38;3.50;;;;;;;;;;6293084;28;20058;-88
2021/12/07 15:43:23;;;;;;;9.30;3.72;;;3.40;99.90;;;;;;6284666;28;20494;-85
2021/12/07 15:47:13;;;;;;;8.88;3.50;;;3.00;99.90;;;;;;6226292;28;20056;-88
2021/12/07 15:50:58;;;;;;;8.75;4.00;;;;;;;;;;6237042;28;20055;-87
2021/12/07 15:54:05;;;;;;;5.93;3.60;;;;;;;;;;6179115;28;20046;-86
2021/12/07 15:57:07;;;;;;;7.50;4.70;;;3.10;99.90;;;;;;6159701;28;20062;-86
2021/12/07 16:00:08;;;;;;;9.93;5.35;;;;;;;;;;6156444;28;20121;-85
2021/12/07 16:03:19;;;;;;;8.10;5.78;;;2.90;99.90;;;;;;6171189;28;20605;-83
2021/12/07 16:06:27;;;;;;;8.25;3.20;;;3.10;99.90;;;;;;6171586;28;20030;-84
2021/12/07 16:09:28;;;;;;;8.60;4.80;;;;;;;;;;6172246;28;20178;-84
2021/12/07 16:12:29;;;;;;;7.82;3.38;;;;;;;;;;6170654;28;20042;-83
2021/12/07 16:15:30;;;;;;;5.75;3.67;;;;;;;;;;6171005;28;20085;-84
2021/12/07 16:18:32;;;;;;;6.25;3.70;;;2.90;99.90;;;;;;6186868;28;20074;-84
2021/12/07 16:21:33;;;;;;;5.57;3.38;;;3.20;99.90;;;;;;6181659;28;20931;-85
2021/12/07 16:24:34;;;;;;;27.42;11.20;;;3.20;99.90;;;;;;6186894;28;20476;-84
2021/12/07 16:27:35;;;;;;;9.18;4.43;;;3.40;99.90;;;;;;6203693;28;20121;-84
2021/12/07 16:30:37;;;;;;;4.90;3.30;;;3.50;99.90;;;;;;6236734;28;20048;-83
2021/12/07 16:33:38;;;;;;;7.53;3.17;;;;;;;;;;6262172;28;20043;-85
2021/12/07 16:36:39;;;;;;;8.10;4.07;;;;;;;;;;6278180;28;20066;-85
2021/12/07 16:39:40;;;;;;;5.43;3.35;;;;;;;;;;6278114;28;20123;-84
2021/12/07 16:42:40;;;;;;;18.48;6.15;;;3.40;99.90;;;;;;6278236;28;20024;-84
2021/12/07 16:45:41;;;;;;;12.00;6.32;;;;;;;;;;6261938;28;20124;-83
2021/12/07 16:48:42;;;;;;;10.18;5.57;;;;;;;;;;6295373;28;20029;-83
2021/12/07 16:51:43;;;;;;;9.77;4.88;;;;;;;;;;6277205;28;20118;-80
2021/12/07 16:54:44;;;;;;;10.25;5.55;;;2.80;99.90;;;;;;6278361;28;20441;-81
2021/12/07 16:57:45;;;;;;;10.30;8.05;;;;;;;;;;6260548;28;20029;-80
2021/12/07 17:00:46;;;;;;;24.13;18.98;;;2.50;99.90;;;;;;6276794;28;20020;-83
2021/12/07 17:03:48;;;;;;;14.80;9.95;;;2.10;99.90;;;;;;6294087;28;20024;-82
2021/12/07 17:06:48;;;;;;;17.77;8.43;;;2.30;99.90;;;;;;6260191;28;20489;-85
2021/12/07 17:09:49;;;;;;;15.07;6.88;;;;;;;;;;6277590;28;20029;-84
2021/12/07 17:12:50;;;;;;;7.25;3.90;;;;;;;;;;6296580;28;20492;-85
2021/12/07 17:15:51;;;;;;;7.70;5.15;;;;;;;;;;6293776;28;20111;-86
2021/12/07 17:18:53;;;;;;;8.95;5.50;;;;;;;;;;6277094;28;20060;-84
2021/12/07 17:21:54;;;;;;;8.80;4.97;;;;;;;;;;6277550;28;20037;-85
2021/12/07 17:24:55;;;;;;;8.13;5.10;;;;;;;;;;6294216;28;20025;-83
2021/12/07 17:27:56;;;;;;;11.20;6.65;;;2.20;99.90;;;;;;6277575;28;20036;-85
2021/12/07 17:30:58;;;;;;;9.15;5.90;;;2.20;99.90;;;;;;6275495;28;20063;-81
2021/12/07 17:33:59;;;;;;;18.73;10.93;;;2.00;99.90;;;;;;6277735;28;20473;-79
2021/12/07 17:37:00;;;;;;;17.00;9.02;;;;;;;;;;6259350;28;20031;-83
2021/12/07 17:40:02;;;;;;;16.80;8.52;;;2.10;99.90;;;;;;6277142;28;20147;-82
2021/12/07 17:43:03;;;;;;;10.57;6.18;;;2.00;99.90;;;;;;6260276;28;20040;-81
2021/12/07 17:46:04;;;;;;;12.48;6.15;;;1.90;99.90;;;;;;6277406;28;20029;-81
2021/12/07 17:49:06;;;;;;;6.35;4.75;;;2.00;99.90;;;;;;6276889;28;20032;-86
2021/12/07 17:52:07;;;;;;;8.10;4.97;;;2.00;99.90;;;;;;6259952;28;20032;-83
2021/12/07 17:55:10;;;;;;;6.07;3.90;;;2.40;99.90;;;;;;6276510;28;20033;-82
2021/12/07 17:58:12;;;;;;;9.43;4.70;;;;;;;;;;6266263;28;21395;-83
2021/12/07 18:01:12;;;;;;;9.07;4.88;;;2.20;99.90;;;;;;6292776;28;20016;-82
2021/12/07 18:04:13;;;;;;;7.22;4.97;;;2.20;99.90;;;;;;6275687;28;20366;-82
2021/12/07 18:07:14;;;;;;;7.15;4.25;;;;;;;;;;6275462;28;20025;-82
2021/12/07 18:10:17;;;;;;;8.30;4.75;;;2.40;99.90;;;;;;6274871;28;20719;-79
2021/12/07 18:13:17;;;;;;;6.40;4.03;;;2.50;99.90;;;;;;6260074;28;20040;-79
2021/12/07 18:16:18;;;;;;;8.95;4.35;;;;;;;;;;6292100;28;20033;-82
2021/12/07 18:19:19;;;;;;;7.63;4.57;;;2.40;99.90;;;;;;6275745;28;20013;-82